createdAt,value
2023-03-06T00:01:06.787Z,19.2
2023-03-06T00:06:13.224Z,19.2
2023-03-06T00:11:19.524Z,19.2
2023-03-06T00:16:27.572Z,19.2
2023-03-06T00:21:35.424Z,19.2
2023-03-06T00:26:43.408Z,19.2
2023-03-06T00:31:51.446Z,19.2
2023-03-06T00:36:59.300Z,19.2
2023-03-06T00:42:07.282Z,19.2
2023-03-06T00:47:15.199Z,19.1
2023-03-06T00:52:23.180Z,19.1
2023-03-06T00:57:31.154Z,19.1
2023-03-06T01:02:39.084Z,19.1
2023-03-06T01:07:47.033Z,19.1
2023-03-06T01:12:55.003Z,19.1
2023-03-06T01:18:02.937Z,19.1
2023-03-06T01:23:10.928Z,19.1
2023-03-06T01:28:18.900Z,19.1
2023-03-06T01:33:26.842Z,19.1
2023-03-06T01:38:34.789Z,19.1
2023-03-06T01:43:42.769Z,19.1
2023-03-06T01:48:50.696Z,19.1
2023-03-06T01:53:58.643Z,19.1
2023-03-06T01:59:06.652Z,19.1
2023-03-06T02:04:14.586Z,19.1
2023-03-06T02:09:22.882Z,19.1
2023-03-06T02:14:30.535Z,19.1
2023-03-06T02:19:38.443Z,19.1
2023-03-06T02:24:46.428Z,19.1
2023-03-06T02:29:54.421Z,19.1
2023-03-06T02:35:02.358Z,19.1
2023-03-06T02:40:10.296Z,19.1
2023-03-06T02:45:18.274Z,19.1
2023-03-06T02:50:26.316Z,19.1
2023-03-06T02:55:34.168Z,19
2023-03-06T03:00:42.157Z,19
2023-03-06T03:05:50.126Z,19.1
2023-03-06T03:10:58.055Z,19.1
2023-03-06T03:16:06.105Z,19.1
2023-03-06T03:21:13.952Z,19
2023-03-06T03:26:21.948Z,19
2023-03-06T03:31:29.960Z,19
2023-03-06T03:36:37.850Z,19
2023-03-06T03:41:45.825Z,19
2023-03-06T03:46:53.790Z,19
2023-03-06T03:52:01.745Z,19
2023-03-06T03:57:09.707Z,19
2023-03-06T04:02:17.765Z,19
2023-03-06T04:07:25.604Z,19
2023-03-06T04:12:31.983Z,19
2023-03-06T04:17:39.951Z,19
2023-03-06T04:22:47.907Z,18.9
2023-03-06T04:27:55.847Z,18.9
2023-03-06T04:33:03.806Z,18.9
2023-03-06T04:38:11.786Z,18.8
2023-03-06T04:43:19.720Z,18.8
2023-03-06T04:48:27.709Z,18.8
2023-03-06T04:53:35.627Z,18.8
2023-03-06T04:58:43.598Z,18.8
2023-03-06T05:03:51.592Z,18.9
2023-03-06T05:08:59.507Z,18.9
2023-03-06T05:14:07.483Z,19
2023-03-06T05:19:15.506Z,19.1
2023-03-06T05:24:23.380Z,19.1
2023-03-06T05:29:31.379Z,19.2
2023-03-06T05:34:39.323Z,19.2
2023-03-06T05:39:47.257Z,19.3
2023-03-06T05:44:55.232Z,19.3
2023-03-06T05:50:03.218Z,19.4
2023-03-06T05:55:11.149Z,19.4
2023-03-06T06:00:19.105Z,19.5
2023-03-06T06:05:27.076Z,19.5
2023-03-06T06:10:35.021Z,19.5
2023-03-06T06:15:43.023Z,19.6
2023-03-06T06:20:50.955Z,19.6
2023-03-06T06:25:58.899Z,19.7
2023-03-06T06:31:06.921Z,19.7
2023-03-06T06:36:14.837Z,19.7
2023-03-06T06:47:20.354Z,19.7
2023-03-06T06:51:38.707Z,19.7
2023-03-06T06:56:46.635Z,19.8
2023-03-06T07:01:54.605Z,19.8
2023-03-06T07:07:02.586Z,19.8
2023-03-06T07:12:10.525Z,19.8
2023-03-06T07:17:18.484Z,19.8
2023-03-06T07:22:26.485Z,19.8
2023-03-06T07:27:34.445Z,19.9
2023-03-06T07:32:42.397Z,19.9
2023-03-06T07:37:50.346Z,19.9
2023-03-06T07:43:12.924Z,19.9
2023-03-06T07:48:06.534Z,19.9
2023-03-06T07:53:14.226Z,19.9
2023-03-06T07:58:22.171Z,19.9
2023-03-06T08:03:30.161Z,19.9
2023-03-06T08:08:38.092Z,19.9
2023-03-06T08:13:46.031Z,19.9
2023-03-06T08:18:54.013Z,19.9
2023-03-06T08:24:02.007Z,19.9
2023-03-06T08:29:09.908Z,19.9
2023-03-06T08:34:17.902Z,19.9
2023-03-06T08:39:25.908Z,19.9
2023-03-06T08:44:33.787Z,19.9
2023-03-06T08:49:41.771Z,20
2023-03-06T08:54:49.724Z,20
2023-03-06T08:59:57.674Z,20.1
2023-03-06T09:05:05.804Z,20.1
2023-03-06T09:10:13.805Z,20.2
2023-03-06T09:15:21.567Z,20.2
2023-03-06T09:20:29.508Z,20.1
2023-03-06T09:25:37.517Z,20.1
2023-03-06T09:30:45.705Z,20.1
2023-03-06T09:35:53.490Z,20.1
2023-03-06T09:41:01.385Z,20.1
2023-03-06T09:46:09.326Z,20.2
2023-03-06T09:51:17.280Z,20.2
2023-03-06T09:56:25.236Z,20.2
2023-03-06T10:01:33.189Z,20.3
2023-03-06T10:06:41.118Z,20.3
2023-03-06T10:11:49.110Z,20.3
2023-03-06T10:16:57.044Z,20.3
2023-03-06T10:22:05.021Z,20.3
2023-03-06T10:27:13.051Z,20.3
2023-03-06T10:32:20.959Z,20.3
2023-03-06T10:37:30.416Z,20.3
2023-03-06T10:42:36.957Z,20.3
2023-03-06T10:47:44.807Z,20.3
2023-03-06T10:52:52.773Z,20.3
2023-03-06T10:58:00.851Z,20.3
2023-03-06T11:03:08.694Z,20.3
2023-03-06T11:08:16.645Z,20.3
2023-03-06T11:13:25.203Z,20.3
2023-03-06T11:18:32.610Z,20.3
2023-03-06T11:23:40.527Z,20.4
2023-03-06T11:28:48.636Z,20.4
2023-03-06T11:33:56.447Z,20.4
2023-03-06T11:39:04.416Z,20.4
2023-03-06T11:44:12.412Z,20.4
2023-03-06T11:49:20.339Z,20.4
2023-03-06T11:54:28.274Z,20.4
2023-03-06T11:59:36.283Z,20.4
2023-03-06T12:04:44.214Z,20.4
2023-03-06T12:09:52.183Z,20.4
2023-03-06T12:15:00.493Z,20.4
2023-03-06T12:20:08.074Z,20.4
2023-03-06T12:25:16.035Z,20.4
2023-03-06T12:30:24.263Z,20.4
2023-03-06T12:35:32.191Z,20.4
2023-03-06T12:40:38.924Z,20.4
2023-03-06T12:45:45.682Z,20.4
2023-03-06T12:50:52.375Z,20.5
2023-03-06T12:55:59.089Z,20.5
2023-03-06T13:01:05.994Z,20.5
2023-03-06T13:06:12.561Z,20.6
2023-03-06T13:11:19.298Z,20.6
2023-03-06T13:16:26.098Z,20.6
2023-03-06T13:21:32.766Z,20.6
2023-03-06T13:26:39.539Z,20.6
2023-03-06T13:31:46.393Z,20.6
2023-03-06T13:36:53.006Z,20.7
2023-03-06T13:41:59.727Z,20.7
2023-03-06T13:47:06.465Z,20.7
2023-03-06T13:52:13.190Z,20.7
2023-03-06T13:57:19.919Z,20.7
2023-03-06T14:02:26.724Z,20.7
2023-03-06T14:12:41.364Z,20.7
2023-03-06T14:17:48.135Z,20.7
2023-03-06T14:22:54.826Z,20.7
2023-03-06T14:28:13.562Z,20.7
2023-03-06T14:33:08.430Z,20.7
2023-03-06T14:38:14.994Z,20.7
2023-03-06T14:43:21.754Z,20.7
2023-03-06T14:48:28.469Z,20.7
2023-03-06T14:53:35.192Z,20.7
2023-03-06T14:58:41.915Z,20.7
2023-03-06T15:03:48.721Z,20.6
2023-03-06T15:08:55.397Z,20.6
2023-03-06T15:14:02.117Z,20.5
2023-03-06T15:19:08.883Z,20.5
2023-03-06T15:29:23.557Z,20.4
2023-03-06T15:34:30.362Z,20.4
2023-03-06T15:39:37.002Z,20.3
2023-03-06T15:44:43.724Z,20.3
2023-03-06T15:49:50.523Z,20.3
2023-03-06T15:54:57.200Z,20.2
2023-03-06T16:00:03.967Z,20.2
2023-03-06T16:05:10.742Z,20.2
2023-03-06T16:10:17.396Z,20.1
2023-03-06T16:15:24.140Z,20.1
2023-03-06T16:20:30.866Z,20.1
2023-03-06T16:25:37.599Z,20.1
2023-03-06T16:30:44.378Z,20.1
2023-03-06T16:35:51.134Z,20.1
2023-03-06T16:40:57.789Z,20
2023-03-06T16:46:04.553Z,20
2023-03-06T16:51:11.281Z,20
2023-03-06T16:56:17.990Z,20
2023-03-06T17:01:24.785Z,20
2023-03-06T17:06:31.496Z,20
2023-03-06T17:11:38.192Z,20
2023-03-06T17:16:44.932Z,20
2023-03-06T17:21:51.668Z,20
2023-03-06T17:26:58.378Z,20
2023-03-06T17:32:05.154Z,20
2023-03-06T17:37:12.013Z,20
2023-03-06T17:42:18.574Z,20
2023-03-06T17:47:25.308Z,20
2023-03-06T17:52:32.054Z,20
2023-03-06T17:57:38.779Z,20
2023-03-06T18:02:45.544Z,19.9
2023-03-06T18:07:52.250Z,19.9
2023-03-06T18:12:58.965Z,19.9
2023-03-06T18:18:05.683Z,19.9
2023-03-06T18:23:12.452Z,19.9
2023-03-06T18:28:19.162Z,19.9
2023-03-06T18:33:25.923Z,19.8
2023-03-06T18:38:32.648Z,19.8
2023-03-06T18:43:39.362Z,19.7
2023-03-06T18:48:46.105Z,19.7
2023-03-06T18:53:52.848Z,19.7
2023-03-06T18:58:59.549Z,19.7
2023-03-06T19:04:06.311Z,19.7
2023-03-06T19:09:13.062Z,19.7
2023-03-06T19:14:19.791Z,19.7
2023-03-06T19:19:26.514Z,19.7
2023-03-06T19:24:33.259Z,19.7
2023-03-06T19:29:39.968Z,19.7
2023-03-06T19:34:46.692Z,19.7
2023-03-06T19:39:53.474Z,19.8
2023-03-06T19:45:00.178Z,19.8
2023-03-06T19:50:06.882Z,19.8
2023-03-06T19:55:13.661Z,19.8
2023-03-06T20:00:20.364Z,19.8
2023-03-06T20:05:27.085Z,19.8
2023-03-06T20:10:33.847Z,19.8
2023-03-06T20:15:40.615Z,19.8
2023-03-06T20:20:47.276Z,19.8
2023-03-06T20:25:54.162Z,19.8
2023-03-06T20:31:00.963Z,19.8
2023-03-06T20:36:07.525Z,19.8
2023-03-06T20:41:14.243Z,19.8
2023-03-06T20:46:20.981Z,19.8
2023-03-06T20:51:27.671Z,19.8
2023-03-06T20:56:34.458Z,19.8
2023-03-06T21:01:41.315Z,19.8
2023-03-06T21:06:47.878Z,19.8
2023-03-06T21:11:54.681Z,19.7
2023-03-06T21:17:01.356Z,19.7
2023-03-06T21:22:08.101Z,19.7
2023-03-06T21:27:14.860Z,19.7
2023-03-06T21:32:21.593Z,19.7
2023-03-06T21:37:28.299Z,19.7
2023-03-06T21:42:35.046Z,19.7
2023-03-06T21:47:41.756Z,19.7
2023-03-06T21:52:48.479Z,19.7
2023-03-06T21:57:55.241Z,19.7
2023-03-06T22:03:01.944Z,19.7
2023-03-06T22:08:08.673Z,19.7
2023-03-06T22:13:15.437Z,19.7
2023-03-06T22:18:22.152Z,19.7
2023-03-06T22:23:28.867Z,19.7
2023-03-06T22:28:35.633Z,19.7
2023-03-06T22:33:42.333Z,19.6
2023-03-06T22:38:49.073Z,19.6
2023-03-06T22:43:55.825Z,19.6
2023-03-06T22:49:02.511Z,19.6
2023-03-06T22:54:10.468Z,19.6
2023-03-06T22:59:17.232Z,19.6
2023-03-06T23:04:25.233Z,19.6
2023-03-06T23:09:31.906Z,19.6
2023-03-06T23:14:39.983Z,19.6
2023-03-06T23:19:46.649Z,19.6
2023-03-06T23:24:53.330Z,19.6
2023-03-06T23:30:00.092Z,19.6
2023-03-06T23:35:06.805Z,19.6
2023-03-06T23:40:13.527Z,19.6
2023-03-06T23:45:20.291Z,19.6
2023-03-06T23:50:26.990Z,19.6
2023-03-06T23:55:33.728Z,19.6
